CheckWX is a tool to help pilots better visualize weather data.  It is not intended as a substitute for an official pre-flight weather briefing.

05:29:20 UTC

CYUB METAR
Tuktoyaktuk Airport
Tuktoyaktuk, Canada
Current

29 mins ago

CYUB 200500Z 32010KT 15SM BKN016 BKN030 M19/M22 A3015 RMK SC5SC1 SLP213
Observed
Feb-20 @ 05:00 UTC
Wind
  • 320° at 10 KTS
Visibility
24,140 meters
Flight Rules
MVFR
Cloud Levels
  • Broken at 1,600' AGL
  • Broken at 3,000' AGL
Temperature
-19°C / -2°F
Dewpoint
-22°C / -8°F
Humidity
77%
Altimeter
30.15" Hg
Pressure
1021.3 hPa
Previous

1 hour ago

CYUB 200400Z 33012KT 15SM BKN017 M18/M21 A3013 RMK SC7 SLP204
Observed
Feb-20 @ 04:00 UTC
Wind
  • 330° at 12 KTS
Visibility
24,140 meters
Flight Rules
MVFR
Cloud Levels
  • Broken at 1,700' AGL
Temperature
-18°C / -0°F
Dewpoint
-21°C / -6°F
Humidity
78%
Altimeter
30.13" Hg
Pressure
1020.4 hPa
Previous

2 hours ago

CYUB 200300Z 33010KT 15SM BKN016 OVC090 M18/M20 A3009 RMK SC7AC1 SLP193
Observed
Feb-20 @ 03:00 UTC
Wind
  • 330° at 10 KTS
Visibility
24,140 meters
Flight Rules
MVFR
Cloud Levels
  • Broken at 1,600' AGL
  • Overcast at 9,000' AGL
Temperature
-18°C / -0°F
Dewpoint
-20°C / -4°F
Humidity
84%
Altimeter
30.09" Hg
Pressure
1019.3 hPa